Time;durP1;ratioP1;P1;durP2;ratioP2;P2;SDS_P1;SDS_P2;PMS_P1;PMS_P2;Temp;Humidity;BMP_temperature;BMP_pressure;BME280_temperature;BME280_humidity;BME280_pressure;Samples;Min_cycle;Max_cycle;Signal;HPM_P1;HPM_P2
2022/04/21 00:02:08;;;;;;;7.27;5.77;;;;;;;;;;6153663;28;20235;-70
2022/04/21 00:05:29;;;;;;;7.50;5.67;;;;;;;;;;6156573;28;20624;-70
2022/04/21 00:08:51;;;;;;;6.07;5.47;;;;;;;;;;6154161;28;20247;-70
2022/04/21 00:12:12;;;;;;;6.73;5.10;;;;;;;;;;6155624;28;20603;-70
2022/04/21 00:15:32;;;;;;;5.57;5.07;;;;;;;;;;6155180;28;20234;-70
2022/04/21 00:18:53;;;;;;;6.90;4.90;;;;;;;;;;6157541;28;20609;-70
2022/04/21 00:25:53;;;;;;;7.17;5.03;;;;;;;;;;6152021;28;20230;-70
2022/04/21 00:29:14;;;;;;;6.63;5.93;;;;;;;;;;6153725;28;20235;-70
2022/04/21 00:32:34;;;;;;;6.20;5.70;;;;;;;;;;6151555;28;20242;-71
2022/04/21 00:35:55;;;;;;;7.63;6.93;;;;;;;;;;6150335;28;20250;-71
2022/04/21 00:39:15;;;;;;;5.53;5.13;;;;;;;;;;6149965;28;20271;-71
2022/04/21 00:42:37;;;;;;;5.80;5.30;;;;;;;;;;6155443;28;20230;-70
2022/04/21 00:45:58;;;;;;;6.13;5.53;;;;;;;;;;6154418;28;20573;-69
2022/04/21 00:49:19;;;;;;;6.43;5.17;;;;;;;;;;6151150;28;20258;-70
2022/04/21 00:52:39;;;;;;;6.37;5.73;;;;;;;;;;6152162;28;20230;-70
2022/04/21 00:56:01;;;;;;;6.57;5.50;;;;;;;;;;6155987;28;20242;-70
2022/04/21 00:59:24;;;;;;;6.33;5.67;;;;;;;;;;6149868;28;20235;-70
2022/04/21 01:02:49;;;;;;;5.90;5.27;;;;;;;;;;6150204;28;20246;-71
2022/04/21 01:06:09;;;;;;;6.40;5.70;;;;;;;;;;6140653;28;20803;-71
2022/04/21 01:09:30;;;;;;;5.50;5.10;;;;;;;;;;6135076;28;20249;-70
2022/04/21 01:12:51;;;;;;;5.93;5.30;;;;;;;;;;6149285;28;20328;-70
2022/04/21 01:16:13;;;;;;;7.33;5.97;;;;;;;;;;6154726;28;20266;-71
2022/04/21 01:19:34;;;;;;;6.60;5.90;;;;;;;;;;6150752;28;20572;-71
2022/04/21 01:22:56;;;;;;;5.77;5.20;;;;;;;;;;6149296;28;20250;-71
2022/04/21 01:26:17;;;;;;;8.30;5.97;;;;;;;;;;6151390;28;20262;-71
2022/04/21 01:29:37;;;;;;;4.93;4.37;;;;;;;;;;6150538;28;21594;-70
2022/04/21 01:32:58;;;;;;;6.03;5.50;;;;;;;;;;6152353;28;20234;-71
2022/04/21 01:36:19;;;;;;;5.33;4.37;;;;;;;;;;6152194;28;20246;-73
2022/04/21 01:43:19;;;;;;;8.47;5.43;;;;;;;;;;6147200;28;20234;-70
2022/04/21 01:46:39;;;;;;;5.43;5.00;;;;;;;;;;6152150;28;20226;-71
2022/04/21 01:50:00;;;;;;;5.23;4.17;;;;;;;;;;6148100;28;20230;-70
2022/04/21 01:53:20;;;;;;;5.43;4.93;;;;;;;;;;6150862;28;20317;-71
2022/04/21 01:56:42;;;;;;;4.63;4.20;;;;;;;;;;6152518;28;20223;-70
2022/04/21 02:00:04;;;;;;;5.10;4.70;;;;;;;;;;6154039;28;20227;-71
2022/04/21 02:03:24;;;;;;;4.17;3.87;;;;;;;;;;6152509;28;20238;-71
2022/04/21 02:06:45;;;;;;;5.07;4.07;;;;;;;;;;6142725;28;21126;-71
2022/04/21 02:10:06;;;;;;;6.10;4.80;;;;;;;;;;6135615;28;20243;-70
2022/04/21 02:13:28;;;;;;;5.23;4.73;;;;;;;;;;6134237;28;20239;-71
2022/04/21 02:16:49;;;;;;;5.83;4.57;;;;;;;;;;6126198;28;20234;-70
2022/04/21 02:20:10;;;;;;;5.40;4.90;;;;;;;;;;6137399;28;20235;-71
2022/04/21 02:23:31;;;;;;;5.30;4.87;;;;;;;;;;6120406;28;20219;-71
2022/04/21 02:26:51;;;;;;;5.17;4.67;;;;;;;;;;6120941;28;20239;-70
2022/04/21 02:30:14;;;;;;;7.00;5.50;;;;;;;;;;6123116;28;20239;-70
2022/04/21 02:33:35;;;;;;;5.63;5.23;;;;;;;;;;6128609;28;20235;-71
2022/04/21 02:36:56;;;;;;;5.27;4.77;;;;;;;;;;6146152;28;20328;-71
2022/04/21 02:40:16;;;;;;;5.47;5.07;;;;;;;;;;6146085;28;20270;-70
2022/04/21 02:43:37;;;;;;;4.83;4.47;;;;;;;;;;6138736;28;20231;-71
2022/04/21 02:46:59;;;;;;;5.80;5.27;;;;;;;;;;6143662;28;20310;-71
2022/04/21 02:50:20;;;;;;;6.03;5.50;;;;;;;;;;6150317;28;20242;-70
2022/04/21 02:57:21;;;;;;;5.77;4.60;;;;;;;;;;6135080;28;20230;-71
2022/04/21 03:00:42;;;;;;;5.23;4.83;;;;;;;;;;6150830;28;22001;-70
2022/04/21 03:04:04;;;;;;;7.20;4.53;;;;;;;;;;6133391;28;20239;-70
2022/04/21 03:07:25;;;;;;;5.37;4.90;;;;;;;;;;6155616;28;20813;-71
2022/04/21 03:10:45;;;;;;;8.40;5.97;;;;;;;;;;6149347;28;20317;-71
2022/04/21 03:14:06;;;;;;;30.57;27.77;;;;;;;;;;6157284;28;20230;-72
2022/04/21 03:17:29;;;;;;;9.20;8.40;;;;;;;;;;6156517;28;20231;-70
2022/04/21 03:24:29;;;;;;;6.10;5.50;;;;;;;;;;6132300;28;20235;-71
2022/04/21 03:27:50;;;;;;;5.93;4.97;;;;;;;;;;6132791;28;20656;-71
2022/04/21 03:31:11;;;;;;;5.53;5.03;;;;;;;;;;6150547;28;20242;-71
2022/04/21 03:34:31;;;;;;;5.33;4.83;;;;;;;;;;6130909;28;20235;-71
2022/04/21 03:37:53;;;;;;;6.07;5.33;;;;;;;;;;6133858;28;20603;-70
2022/04/21 03:41:14;;;;;;;9.33;6.43;;;;;;;;;;6131742;28;20232;-71
2022/04/21 03:44:35;;;;;;;6.37;5.67;;;;;;;;;;6131011;28;20235;-70
2022/04/21 03:47:56;;;;;;;7.40;6.70;;;;;;;;;;6134481;28;20411;-70
2022/04/21 03:51:16;;;;;;;6.67;5.47;;;;;;;;;;6156822;28;20292;-70
2022/04/21 03:54:39;;;;;;;6.27;5.73;;;;;;;;;;6157168;28;20227;-69
2022/04/21 03:58:00;;;;;;;6.83;4.97;;;;;;;;;;6155590;28;20234;-71
2022/04/21 04:01:20;;;;;;;5.47;4.97;;;;;;;;;;6152998;28;20260;-70
2022/04/21 04:04:41;;;;;;;6.07;5.47;;;;;;;;;;6152347;28;20254;-71
2022/04/21 04:11:41;;;;;;;7.23;5.57;;;;;;;;;;6152291;28;20230;-70
2022/04/21 04:15:02;;;;;;;6.60;6.00;;;;;;;;;;6156475;28;20223;-70
2022/04/21 04:18:23;;;;;;;6.20;5.60;;;;;;;;;;6153194;28;20230;-71
2022/04/21 04:21:44;;;;;;;6.17;5.57;;;;;;;;;;6155482;28;20230;-71
2022/04/21 04:25:05;;;;;;;8.10;6.20;;;;;;;;;;6152533;28;20597;-71
2022/04/21 04:28:27;;;;;;;7.57;5.60;;;;;;;;;;6152642;28;20234;-71
2022/04/21 04:31:48;;;;;;;5.73;5.23;;;;;;;;;;6152505;28;20613;-71
2022/04/21 04:35:09;;;;;;;9.50;6.23;;;;;;;;;;6156773;28;20226;-70
2022/04/21 04:38:30;;;;;;;5.73;5.13;;;;;;;;;;6152013;28;20313;-71
2022/04/21 04:49:09;;;;;;;7.27;5.10;;;;;;;;;;6130955;28;20243;-71
2022/04/21 04:52:29;;;;;;;7.00;5.00;;;;;;;;;;6141909;28;20242;-71
2022/04/21 04:55:50;;;;;;;5.50;5.00;;;;;;;;;;6138202;28;20231;-70
2022/04/21 04:59:10;;;;;;;5.80;5.30;;;;;;;;;;6135469;28;20231;-71
2022/04/21 05:02:32;;;;;;;5.40;5.00;;;;;;;;;;6125762;28;20342;-71
2022/04/21 05:05:53;;;;;;;6.90;5.93;;;;;;;;;;6132189;28;20234;-70
2022/04/21 05:09:15;;;;;;;6.47;5.23;;;;;;;;;;6127669;28;20262;-71
2022/04/21 05:12:35;;;;;;;5.80;5.20;;;;;;;;;;6141510;28;20242;-71
2022/04/21 05:15:56;;;;;;;6.80;6.20;;;;;;;;;;6147185;28;20242;-70
2022/04/21 05:19:19;;;;;;;7.63;4.97;;;;;;;;;;6136976;28;21089;-71
2022/04/21 05:22:40;;;;;;;8.30;6.00;;;;;;;;;;6129587;28;20613;-71
2022/04/21 05:26:01;;;;;;;4.40;4.07;;;;;;;;;;6128506;28;20239;-70
2022/04/21 05:33:00;;;;;;;6.30;4.93;;;;;;;;;;6127485;28;20234;-71
2022/04/21 05:36:23;;;;;;;7.23;4.93;;;;;;;;;;6139152;28;20234;-70
2022/04/21 05:39:43;;;;;;;4.63;4.20;;;;;;;;;;6138712;28;20234;-71
2022/04/21 05:43:06;;;;;;;5.00;4.60;;;;;;;;;;6127135;28;20614;-72
2022/04/21 05:46:27;;;;;;;6.03;4.80;;;;;;;;;;6128811;28;20313;-70
2022/04/21 05:49:48;;;;;;;6.03;4.57;;;;;;;;;;6145247;28;20227;-71
2022/04/21 05:53:11;;;;;;;5.80;5.30;;;;;;;;;;6126634;28;20231;-74
2022/04/21 05:56:32;;;;;;;7.63;4.83;;;;;;;;;;6149276;28;20234;-73
2022/04/21 05:59:53;;;;;;;7.20;3.87;;;;;;;;;;6149481;28;21066;-69
2022/04/21 06:03:13;;;;;;;5.47;4.50;;;;;;;;;;6138099;28;20605;-69
2022/04/21 06:06:34;;;;;;;5.73;4.00;;;;;;;;;;6139844;28;20237;-70
2022/04/21 06:09:56;;;;;;;4.83;4.43;;;;;;;;;;6125197;28;20250;-74
2022/04/21 06:13:17;;;;;;;7.20;6.07;;;;;;;;;;6134437;28;20289;-76
2022/04/21 06:16:37;;;;;;;3.77;3.47;;;;;;;;;;6122071;28;20239;-72
2022/04/21 06:19:57;;;;;;;4.07;3.70;;;;;;;;;;6128605;28;20223;-72
2022/04/21 06:23:18;;;;;;;4.43;4.00;;;;;;;;;;6127337;28;20223;-73
2022/04/21 06:26:42;;;;;;;4.57;3.57;;;;;;;;;;6147365;28;20238;-73
2022/04/21 06:30:03;;;;;;;6.17;3.53;;;;;;;;;;6140036;28;20349;-69
2022/04/21 06:33:24;;;;;;;7.03;3.77;;;;;;;;;;6127221;28;20239;-73
2022/04/21 06:36:44;;;;;;;6.07;3.70;;;;;;;;;;6149673;28;21006;-71
2022/04/21 06:40:05;;;;;;;5.27;3.50;;;;;;;;;;6140920;28;20222;-73
2022/04/21 06:50:55;;;;;;;4.03;3.07;;;;;;;;;;6119583;28;20242;-71
2022/04/21 06:54:16;;;;;;;3.43;3.03;;;;;;;;;;6123727;28;21340;-74
2022/04/21 06:57:37;;;;;;;5.77;3.07;;;;;;;;;;6152606;28;20238;-73
2022/04/21 07:00:58;;;;;;;3.67;2.97;;;;;;;;;;6142899;28;20596;-72
2022/04/21 07:04:20;;;;;;;3.23;2.97;;;;;;;;;;6149560;28;20616;-73
2022/04/21 07:07:41;;;;;;;2.97;2.67;;;;;;;;;;6163144;28;20235;-75
2022/04/21 07:11:01;;;;;;;3.20;2.90;;;;;;;;;;6154488;28;20238;-71
2022/04/21 07:14:22;;;;;;;3.80;3.47;;;;;;;;;;6158419;28;20230;-75
2022/04/21 07:17:44;;;;;;;3.93;2.53;;;;;;;;;;6156102;28;20253;-76
2022/04/21 07:21:07;;;;;;;3.43;2.57;;;;;;;;;;6152655;28;20231;-73
2022/04/21 07:24:28;;;;;;;3.23;2.93;;;;;;;;;;6154182;28;20234;-72
2022/04/21 07:27:49;;;;;;;4.33;2.73;;;;;;;;;;6155352;28;20774;-72
2022/04/21 07:31:09;;;;;;;3.67;2.53;;;;;;;;;;6152452;28;20521;-76
2022/04/21 07:34:31;;;;;;;5.07;3.27;;;;;;;;;;6158103;28;20647;-75
2022/04/21 07:37:52;;;;;;;2.33;2.03;;;;;;;;;;6159282;28;20238;-74
2022/04/21 07:41:13;;;;;;;3.33;2.30;;;;;;;;;;6160412;28;20238;-75
2022/04/21 07:44:35;;;;;;;4.03;2.37;;;;;;;;;;6154167;28;20232;-70
2022/04/21 07:47:55;;;;;;;3.03;2.80;;;;;;;;;;6149943;28;20596;-71
2022/04/21 07:51:17;;;;;;;3.13;2.47;;;;;;;;;;6149998;28;20250;-70
2022/04/21 07:54:38;;;;;;;2.40;2.20;;;;;;;;;;6131552;28;20247;-69
2022/04/21 07:57:58;;;;;;;4.97;3.17;;;;;;;;;;6123330;28;20231;-69
2022/04/21 08:01:18;;;;;;;4.67;2.70;;;;;;;;;;6124000;28;20863;-72
2022/04/21 08:04:40;;;;;;;3.10;2.30;;;;;;;;;;6121425;28;20519;-71
2022/04/21 08:08:03;;;;;;;2.10;1.90;;;;;;;;;;6132850;28;20231;-71
2022/04/21 08:11:23;;;;;;;3.83;2.53;;;;;;;;;;6142712;28;20231;-72
2022/04/21 08:14:44;;;;;;;3.43;2.17;;;;;;;;;;6135013;28;20234;-71
2022/04/21 08:18:07;;;;;;;2.40;1.93;;;;;;;;;;6123302;28;20238;-72
2022/04/21 08:21:27;;;;;;;1.90;1.70;;;;;;;;;;6135378;28;20247;-70
2022/04/21 08:35:46;;;;;;;2.83;1.83;;;;;;;;;;6144806;28;20230;-68
2022/04/21 08:39:07;;;;;;;3.33;2.10;;;;;;;;;;6156379;28;20223;-68
2022/04/21 08:42:30;;;;;;;1.67;1.53;;;;;;;;;;6139906;28;20563;-67
2022/04/21 08:45:51;;;;;;;2.50;2.00;;;;;;;;;;6138084;28;20302;-66
2022/04/21 08:49:13;;;;;;;2.37;2.03;;;;;;;;;;6135684;28;20234;-68
2022/04/21 08:52:34;;;;;;;2.87;2.10;;;;;;;;;;6146608;28;20230;-68
2022/04/21 08:55:55;;;;;;;2.47;2.27;;;;;;;;;;6162818;28;20258;-69
2022/04/21 08:59:19;;;;;;;2.10;2.00;;;;;;;;;;6145309;28;20234;-68
2022/04/21 09:02:41;;;;;;;2.20;2.10;;;;;;;;;;6140771;28;20781;-68
2022/04/21 09:06:02;;;;;;;2.70;1.87;;;;;;;;;;6156824;28;20329;-68
2022/04/21 09:09:23;;;;;;;4.07;2.33;;;;;;;;;;6155184;28;21071;-69
2022/04/21 09:12:44;;;;;;;2.57;2.10;;;;;;;;;;6158994;28;20333;-72
2022/04/21 09:16:07;;;;;;;3.70;1.90;;;;;;;;;;6152061;28;20258;-70
2022/04/21 09:19:28;;;;;;;1.80;1.70;;;;;;;;;;6155393;28;20238;-70
2022/04/21 09:22:52;;;;;;;2.77;2.20;;;;;;;;;;6158612;28;20241;-72
2022/04/21 09:26:14;;;;;;;2.27;2.07;;;;;;;;;;6156514;28;20686;-71
2022/04/21 09:29:38;;;;;;;2.47;1.97;;;;;;;;;;6158082;28;20691;-70
2022/04/21 09:33:00;;;;;;;2.53;1.90;;;;;;;;;;6159819;28;20233;-69
2022/04/21 09:36:21;;;;;;;2.53;2.33;;;;;;;;;;6157191;28;20231;-70
2022/04/21 09:39:42;;;;;;;3.87;1.80;;;;;;;;;;6157439;28;20233;-70
2022/04/21 09:43:04;;;;;;;2.03;1.60;;;;;;;;;;6162800;28;20628;-70
2022/04/21 09:46:24;;;;;;;6.27;2.70;;;;;;;;;;6154466;28;20234;-71
2022/04/21 09:49:47;;;;;;;3.20;1.80;;;;;;;;;;6155988;28;20545;-72
2022/04/21 09:53:08;;;;;;;2.57;2.30;;;;;;;;;;6151903;28;20231;-73
2022/04/21 09:56:29;;;;;;;5.73;2.20;;;;;;;;;;6153401;28;20230;-71
2022/04/21 09:59:50;;;;;;;2.53;2.27;;;;;;;;;;6154452;28;20235;-71
2022/04/21 10:03:10;;;;;;;2.50;2.10;;;;;;;;;;6160230;28;20250;-71
2022/04/21 10:06:33;;;;;;;3.57;1.87;;;;;;;;;;6160850;28;20230;-71
2022/04/21 10:09:54;;;;;;;3.47;2.10;;;;;;;;;;6134651;28;20810;-70
2022/04/21 10:13:15;;;;;;;2.00;1.90;;;;;;;;;;6145915;28;20238;-71
2022/04/21 10:16:36;;;;;;;2.40;1.77;;;;;;;;;;6144657;28;20286;-71
2022/04/21 10:19:56;;;;;;;3.53;2.17;;;;;;;;;;6135704;28;20235;-71
2022/04/21 10:23:21;;;;;;;2.97;2.03;;;;;;;;;;6125958;28;20231;-72
2022/04/21 10:26:43;;;;;;;1.77;1.60;;;;;;;;;;6158763;28;20222;-72
2022/04/21 10:30:10;;;;;;;3.15;2.60;;;;;;;;;;6134380;28;20238;-72
2022/04/21 10:33:46;;;;;;;3.85;2.50;;;;;;;;;;6155605;28;20230;-71
2022/04/21 10:37:10;;;;;;;3.95;2.92;;;;;;;;;;6161806;28;20334;-70
2022/04/21 10:40:32;;;;;;;2.78;2.15;;;;;;;;;;6159774;28;20841;-71
2022/04/21 10:44:03;;;;;;;3.28;2.55;;;;;;;;;;6145443;28;20234;-72
2022/04/21 10:47:31;;;;;;;3.33;1.65;;;;;;;;;;6130877;28;20223;-71
2022/04/21 10:50:52;;;;;;;2.63;2.17;;;;;;;;;;6135643;28;20235;-71
2022/04/21 10:57:53;;;;;;;2.88;2.22;;;;;;;;;;6137084;28;20545;-70
2022/04/21 11:01:15;;;;;;;2.55;2.30;;;;;;;;;;6130926;28;20314;-69
2022/04/21 11:04:35;;;;;;;3.55;3.20;;;;;;;;;;6119300;28;20251;-72
2022/04/21 11:07:56;;;;;;;3.38;2.40;;;;;;;;;;6147463;28;20679;-74
2022/04/21 11:11:37;;;;;;;3.07;2.60;;;;;;;;;;6143706;28;20223;-69
2022/04/21 11:15:19;;;;;;;3.42;2.00;;;;;;;;;;6155544;28;20230;-71
2022/04/21 11:18:39;;;;;;;2.73;2.20;;;;;;;;;;6153409;28;20713;-71
2022/04/21 11:22:01;;;;;;;3.00;2.40;;;;;;;;;;6148261;28;20326;-75
2022/04/21 11:25:22;;;;;;;6.10;2.67;;;;;;;;;;6133819;28;20227;-69
2022/04/21 11:28:43;;;;;;;2.43;2.23;;;;;;;;;;6124636;28;20390;-73
2022/04/21 11:32:06;;;;;;;2.67;2.47;;;;;;;;;;6128432;28;20235;-69
2022/04/21 11:35:27;;;;;;;4.97;3.20;;;;;;;;;;6138064;28;20321;-73
2022/04/21 11:38:48;;;;;;;2.63;2.43;;;;;;;;;;6147678;28;20310;-73
2022/04/21 11:42:09;;;;;;;2.80;1.77;;;;;;;;;;6137607;28;20325;-71
2022/04/21 11:45:30;;;;;;;2.77;1.77;;;;;;;;;;6129166;28;20509;-71
2022/04/21 11:49:00;;;;;;;4.77;2.30;;;;;;;;;;6156054;28;20226;-71
2022/04/21 11:52:26;;;;;;;3.70;1.97;;;;;;;;;;6158594;28;20238;-70
2022/04/21 11:55:47;;;;;;;2.10;1.80;;;;;;;;;;6160982;28;20230;-68
2022/04/21 11:59:08;;;;;;;2.63;2.30;;;;;;;;;;6145383;28;20701;-71
2022/04/21 12:09:48;;;;;;;3.17;1.97;;;;;;;;;;6149164;28;20333;-70
2022/04/21 12:13:08;;;;;;;3.03;2.60;;;;;;;;;;6155807;28;20234;-73
2022/04/21 12:16:39;;;;;;;3.47;2.40;;;;;;;;;;6152499;28;20242;-72
2022/04/21 12:20:02;;;;;;;3.45;2.40;;;;;;;;;;6156353;28;20242;-73
2022/04/21 12:23:27;;;;;;;9.80;3.00;;;;;;;;;;6158705;28;20616;-73
2022/04/21 12:26:49;;;;;;;4.70;2.53;;;;;;;;;;6154702;28;20222;-73
2022/04/21 12:30:11;;;;;;;4.97;2.30;;;;;;;;;;6154444;28;20234;-68
2022/04/21 12:33:41;;;;;;;4.53;2.35;;;;;;;;;;6150720;28;20605;-73
2022/04/21 12:37:02;;;;;;;3.78;2.47;;;;;;;;;;6137679;28;20233;-69
2022/04/21 12:40:24;;;;;;;2.47;1.77;;;;;;;;;;6131641;28;20233;-69
2022/04/21 12:43:45;;;;;;;3.05;2.30;;;;;;;;;;6159874;28;20751;-67
2022/04/21 12:47:12;;;;;;;3.90;2.30;;;;;;;;;;6154276;28;20297;-68
2022/04/21 12:50:36;;;;;;;3.35;2.10;;;;;;;;;;6151099;28;20227;-69
2022/04/21 12:53:57;;;;;;;6.72;2.47;;;;;;;;;;6131353;28;20672;-71
2022/04/21 12:57:19;;;;;;;4.47;2.50;;;;;;;;;;6131048;28;20226;-70
2022/04/21 13:00:41;;;;;;;2.83;2.30;;;;;;;;;;6132637;28;20259;-70
2022/04/21 13:04:02;;;;;;;5.63;2.38;;;;;;;;;;6147313;28;20238;-70
2022/04/21 13:07:23;;;;;;;5.03;2.20;;;;;;;;;;6139082;28;20235;-71
2022/04/21 13:10:43;;;;;;;3.33;2.35;;;;;;;;;;6120284;28;20234;-72
2022/04/21 13:14:05;;;;;;;8.48;2.30;;;;;;;;;;6141716;28;20575;-72
2022/04/21 13:17:26;;;;;;;4.00;1.95;;;;;;;;;;6133336;28;20223;-71
2022/04/21 13:24:25;;;;;;;3.78;2.85;;;;;;;;;;6130821;28;20251;-74
2022/04/21 13:27:45;;;;;;;3.72;2.55;;;;;;;;;;6128612;28;20234;-71
2022/04/21 13:34:45;;;;;;;3.00;2.42;;;;;;;;;;6149980;28;20226;-70
2022/04/21 13:38:06;;;;;;;10.38;2.78;;;;;;;;;;6151171;28;20222;-70
2022/04/21 13:41:27;;;;;;;3.53;3.17;;;;;;;;;;6143680;28;20237;-72
2022/04/21 13:44:48;;;;;;;4.93;2.95;;;;;;;;;;6150356;28;20529;-73
2022/04/21 13:48:09;;;;;;;3.85;2.70;;;;;;;;;;6134139;28;20234;-72
2022/04/21 13:51:30;;;;;;;4.65;2.90;;;;;;;;;;6135118;28;21237;-77
2022/04/21 13:54:51;;;;;;;3.85;2.35;;;;;;;;;;6123819;28;20231;-72
2022/04/21 13:58:12;;;;;;;5.97;2.65;;;;;;;;;;6153702;28;20589;-71
2022/04/21 14:01:33;;;;;;;4.38;2.58;;;;;;;;;;6113537;28;20708;-70
2022/04/21 14:04:55;;;;;;;3.72;2.25;;;;;;;;;;6136734;28;20531;-71
2022/04/21 14:08:15;;;;;;;3.95;3.00;;;;;;;;;;6133565;28;20239;-71
2022/04/21 14:11:37;;;;;;;3.65;3.22;;;;;;;;;;6125256;28;21493;-72
2022/04/21 14:14:57;;;;;;;5.53;3.30;;;;;;;;;;6127051;28;20243;-73
2022/04/21 14:18:19;;;;;;;6.35;4.00;;;;;;;;;;6132186;28;20232;-73
2022/04/21 14:21:42;;;;;;;5.63;3.58;;;;;;;;;;6133528;28;20231;-72
2022/04/21 14:25:03;;;;;;;4.35;3.33;;;;;;;;;;6144438;28;21153;-70
2022/04/21 14:28:25;;;;;;;11.50;3.72;;;;;;;;;;6141570;28;20246;-70
2022/04/21 14:31:46;;;;;;;5.30;3.67;;;;;;;;;;6156951;28;20325;-70
2022/04/21 14:35:07;;;;;;;5.18;3.50;;;;;;;;;;6154128;28;20536;-70
2022/04/21 14:45:51;;;;;;;4.82;4.15;;;;;;;;;;6081180;28;20550;-71
2022/04/21 14:49:13;;;;;;;4.20;3.53;;;;;;;;;;6138716;28;21115;-73
2022/04/21 14:52:33;;;;;;;6.55;3.75;;;;;;;;;;6137334;28;20259;-71
2022/04/21 14:55:55;;;;;;;8.57;4.57;;;;;;;;;;6139285;28;20227;-72
2022/04/21 14:59:16;;;;;;;5.90;4.07;;;;;;;;;;6131671;28;20239;-69
2022/04/21 15:02:37;;;;;;;5.50;3.53;;;;;;;;;;6125105;28;20231;-72
2022/04/21 15:05:57;;;;;;;5.70;3.80;;;;;;;;;;6145570;28;20597;-69
2022/04/21 15:09:18;;;;;;;5.03;4.10;;;;;;;;;;6150485;28;20665;-69
2022/04/21 15:12:40;;;;;;;7.50;3.60;;;;;;;;;;6149349;28;20234;-71
2022/04/21 15:16:01;;;;;;;5.37;3.63;;;;;;;;;;6154251;28;20246;-72
2022/04/21 15:19:21;;;;;;;5.90;3.87;;;;;;;;;;6152406;28;20234;-72
2022/04/21 15:22:42;;;;;;;5.67;4.23;;;;;;;;;;6124640;28;20228;-69
2022/04/21 15:26:02;;;;;;;8.20;5.17;;;;;;;;;;6125832;28;20691;-70
2022/04/21 15:29:26;;;;;;;6.53;4.50;;;;;;;;;;6133263;28;20263;-72
2022/04/21 15:32:46;;;;;;;8.50;5.47;;;;;;;;;;6135595;28;20243;-72
2022/04/21 15:36:07;;;;;;;10.13;5.90;;;;;;;;;;6142578;28;20238;-70
2022/04/21 15:39:28;;;;;;;5.33;3.90;;;;;;;;;;6119538;28;20239;-69
2022/04/21 15:42:49;;;;;;;5.83;4.53;;;;;;;;;;6132832;28;20227;-70
2022/04/21 15:46:11;;;;;;;5.83;4.47;;;;;;;;;;6132269;28;20326;-70
2022/04/21 15:49:32;;;;;;;8.40;5.87;;;;;;;;;;6136568;28;20603;-70
2022/04/21 15:52:52;;;;;;;8.67;5.20;;;;;;;;;;6133668;28;20763;-70
2022/04/21 15:59:51;;;;;;;8.37;5.43;;;;;;;;;;6154294;28;20246;-70
2022/04/21 16:03:13;;;;;;;7.07;4.77;;;;;;;;;;6156464;28;20231;-70
2022/04/21 16:06:34;;;;;;;9.07;4.67;;;;;;;;;;6142553;28;20264;-71
2022/04/21 16:09:54;;;;;;;8.90;5.23;;;;;;;;;;6151208;28;20502;-71
2022/04/21 16:13:15;;;;;;;6.03;4.83;;;;;;;;;;6152974;28;20241;-71
2022/04/21 16:16:36;;;;;;;8.13;5.53;;;;;;;;;;6136558;28;20254;-68
2022/04/21 16:19:58;;;;;;;9.67;5.30;;;;;;;;;;6140430;28;20912;-70
2022/04/21 16:23:18;;;;;;;7.33;5.13;;;;;;;;;;6141581;28;20242;-68
2022/04/21 16:26:39;;;;;;;8.13;5.70;;;;;;;;;;6144952;28;20246;-67
2022/04/21 16:29:59;;;;;;;6.83;5.30;;;;;;;;;;6121097;28;20794;-69
2022/04/21 16:33:20;;;;;;;9.47;5.50;;;;;;;;;;6135600;28;21078;-69
2022/04/21 16:36:42;;;;;;;5.93;4.87;;;;;;;;;;6130084;28;20231;-68
2022/04/21 16:40:03;;;;;;;8.20;4.87;;;;;;;;;;6133289;28;20326;-69
2022/04/21 16:43:23;;;;;;;6.40;5.20;;;;;;;;;;6139759;28;20567;-69
2022/04/21 16:46:44;;;;;;;7.93;6.13;;;;;;;;;;6138886;28;20242;-70
2022/04/21 16:50:05;;;;;;;8.23;5.77;;;;;;;;;;6144942;28;20226;-69
2022/04/21 16:53:27;;;;;;;6.87;5.03;;;;;;;;;;6142330;28;21073;-68
2022/04/21 16:56:48;;;;;;;6.07;4.80;;;;;;;;;;6149876;28;20242;-69
2022/04/21 17:00:09;;;;;;;7.37;5.07;;;;;;;;;;6145991;28;20232;-70
2022/04/21 17:03:30;;;;;;;9.23;5.40;;;;;;;;;;6141828;28;20219;-69
2022/04/21 17:06:51;;;;;;;8.47;5.63;;;;;;;;;;6138158;28;20529;-69
2022/04/21 17:10:14;;;;;;;6.33;5.10;;;;;;;;;;6137661;28;20230;-69
2022/04/21 17:13:35;;;;;;;7.60;5.67;;;;;;;;;;6130947;28;20255;-68
2022/04/21 17:16:56;;;;;;;7.77;5.13;;;;;;;;;;6135018;28;20252;-69
2022/04/21 17:20:16;;;;;;;11.53;5.47;;;;;;;;;;6135026;28;20230;-67
2022/04/21 17:23:37;;;;;;;7.77;4.70;;;;;;;;;;6130356;28;20219;-69
2022/04/21 17:26:59;;;;;;;6.43;5.20;;;;;;;;;;6133421;28;20483;-68
2022/04/21 17:30:19;;;;;;;8.33;5.77;;;;;;;;;;6140594;28;20852;-69
2022/04/21 17:33:40;;;;;;;9.37;6.63;;;;;;;;;;6141491;28;20257;-69
2022/04/21 17:37:00;;;;;;;9.77;6.80;;;;;;;;;;6161210;28;20245;-69
2022/04/21 17:40:21;;;;;;;9.70;5.40;;;;;;;;;;6160251;28;20325;-68
2022/04/21 17:43:43;;;;;;;7.77;4.97;;;;;;;;;;6159103;28;20226;-69
2022/04/21 17:47:05;;;;;;;7.73;6.33;;;;;;;;;;6159560;28;20258;-69
2022/04/21 17:50:27;;;;;;;11.40;6.53;;;;;;;;;;6162295;28;20334;-69
2022/04/21 17:53:48;;;;;;;10.63;5.37;;;;;;;;;;6146192;28;20807;-70
2022/04/21 17:57:08;;;;;;;6.40;5.60;;;;;;;;;;6138592;28;20675;-69
2022/04/21 18:00:33;;;;;;;10.27;5.67;;;;;;;;;;6119795;28;20803;-69
2022/04/21 18:03:54;;;;;;;7.63;6.17;;;;;;;;;;6134482;28;20345;-69
2022/04/21 18:07:14;;;;;;;10.17;5.03;;;;;;;;;;6141129;28;20235;-69
2022/04/21 18:10:35;;;;;;;7.97;5.80;;;;;;;;;;6137718;28;20254;-69
2022/04/21 18:13:55;;;;;;;8.20;5.87;;;;;;;;;;6132045;28;20609;-69
2022/04/21 18:17:17;;;;;;;7.97;4.83;;;;;;;;;;6144796;28;20223;-69
2022/04/21 18:20:38;;;;;;;10.37;5.60;;;;;;;;;;6140597;28;20239;-69
2022/04/21 18:23:59;;;;;;;10.97;5.80;;;;;;;;;;6165487;28;20226;-69
2022/04/21 18:27:19;;;;;;;9.50;6.67;;;;;;;;;;6165293;28;20230;-70
2022/04/21 18:30:40;;;;;;;9.80;6.30;;;;;;;;;;6160834;28;20234;-68
2022/04/21 18:34:04;;;;;;;10.50;5.70;;;;;;;;;;6162491;28;20597;-69
2022/04/21 18:37:25;;;;;;;9.33;6.00;;;;;;;;;;6163246;28;20234;-68
2022/04/21 18:40:46;;;;;;;10.73;5.60;;;;;;;;;;6142278;28;20318;-68
2022/04/21 18:44:07;;;;;;;9.07;6.03;;;;;;;;;;6140332;28;20223;-68
2022/04/21 18:47:27;;;;;;;9.03;6.50;;;;;;;;;;6136653;28;20227;-69
2022/04/21 18:50:49;;;;;;;12.77;6.87;;;;;;;;;;6151257;28;20791;-69
2022/04/21 18:54:10;;;;;;;12.50;6.83;;;;;;;;;;6141948;28;20223;-69
2022/04/21 19:01:05;;;;;;;10.73;7.37;;;;;;;;;;6151754;28;20227;-69
2022/04/21 19:04:26;;;;;;;9.13;5.60;;;;;;;;;;6157258;28;20243;-69
2022/04/21 19:07:48;;;;;;;11.40;6.80;;;;;;;;;;6164804;28;20601;-68
2022/04/21 19:11:09;;;;;;;13.47;7.43;;;;;;;;;;6156310;28;20685;-68
2022/04/21 19:14:29;;;;;;;9.07;5.67;;;;;;;;;;6141233;28;20262;-70
2022/04/21 19:17:50;;;;;;;12.70;6.80;;;;;;;;;;6139357;28;20338;-70
2022/04/21 19:21:35;;;;;;;11.90;6.70;;;;;;;;;;6140135;28;20314;-70
2022/04/21 19:24:53;;;;;;;10.50;6.87;;;;;;;;;;6140825;28;20239;-69
2022/04/21 19:28:14;;;;;;;9.90;6.73;;;;;;;;;;6137645;28;22231;-69
2022/04/21 19:31:34;;;;;;;9.13;6.30;;;;;;;;;;6140103;28;20239;-69
2022/04/21 19:34:55;;;;;;;9.77;6.13;;;;;;;;;;6138528;28;20317;-68
2022/04/21 19:38:16;;;;;;;10.10;6.27;;;;;;;;;;6138229;28;20235;-70
2022/04/21 19:41:38;;;;;;;11.20;6.73;;;;;;;;;;6149559;28;20227;-71
2022/04/21 19:44:58;;;;;;;10.57;6.73;;;;;;;;;;6162651;28;20567;-69
2022/04/21 19:48:19;;;;;;;9.73;6.87;;;;;;;;;;6162043;28;20930;-68
2022/04/21 19:51:40;;;;;;;11.97;7.57;;;;;;;;;;6164478;28;20226;-69
2022/04/21 19:55:01;;;;;;;9.83;6.03;;;;;;;;;;6134265;28;20234;-69
2022/04/21 19:58:23;;;;;;;9.87;5.77;;;;;;;;;;6163367;28;20230;-70
2022/04/21 20:01:44;;;;;;;8.67;6.77;;;;;;;;;;6160768;28;20235;-69
2022/04/21 20:05:04;;;;;;;9.70;6.77;;;;;;;;;;6162950;28;20243;-69
2022/04/21 20:12:03;;;;;;;8.77;5.70;;;;;;;;;;6161756;28;20222;-68
2022/04/21 20:15:25;;;;;;;15.60;6.60;;;;;;;;;;6163788;28;20234;-70
2022/04/21 20:18:46;;;;;;;13.83;7.27;;;;;;;;;;6163454;28;20238;-69
2022/04/21 20:22:14;;;;;;;13.77;6.50;;;;;;;;;;6162495;28;20233;-69
2022/04/21 20:29:13;;;;;;;11.97;7.00;;;;;;;;;;6161040;28;20333;-69
2022/04/21 20:32:35;;;;;;;13.67;7.60;;;;;;;;;;6151603;28;20238;-69
2022/04/21 20:35:56;;;;;;;14.73;6.73;;;;;;;;;;6161357;28;20607;-70
2022/04/21 20:39:16;;;;;;;11.70;6.57;;;;;;;;;;6162365;28;20238;-68
2022/04/21 20:42:37;;;;;;;10.07;6.80;;;;;;;;;;6159868;28;20317;-69
2022/04/21 20:45:58;;;;;;;8.80;5.90;;;;;;;;;;6165089;28;20231;-69
2022/04/21 20:49:21;;;;;;;9.63;6.43;;;;;;;;;;6164043;28;20351;-69
2022/04/21 20:52:41;;;;;;;11.13;6.37;;;;;;;;;;6160127;28;20231;-69
2022/04/21 20:56:01;;;;;;;12.53;8.23;;;;;;;;;;6166173;28;20766;-69
2022/04/21 20:59:22;;;;;;;9.77;6.77;;;;;;;;;;6159445;28;20227;-69
2022/04/21 21:02:43;;;;;;;8.43;6.13;;;;;;;;;;6158944;28;20496;-70
2022/04/21 21:06:05;;;;;;;10.97;6.83;;;;;;;;;;6161338;28;20538;-69
2022/04/21 21:09:26;;;;;;;9.10;5.60;;;;;;;;;;6159149;28;20242;-70
2022/04/21 21:12:46;;;;;;;10.87;5.77;;;;;;;;;;6160765;28;20325;-69
2022/04/21 21:16:07;;;;;;;6.63;4.80;;;;;;;;;;6150163;28;20538;-68
2022/04/21 21:19:28;;;;;;;7.97;4.87;;;;;;;;;;6151511;28;20234;-68
2022/04/21 21:22:50;;;;;;;9.50;5.63;;;;;;;;;;6151073;28;20222;-69
2022/04/21 21:26:11;;;;;;;10.50;5.73;;;;;;;;;;6152898;28;20223;-68
2022/04/21 21:29:32;;;;;;;7.43;4.20;;;;;;;;;;6147753;28;20226;-70
2022/04/21 21:32:53;;;;;;;8.47;5.60;;;;;;;;;;6150854;28;20235;-70